createdAt,value
2022-08-18T00:00:36.001Z,26.93
2022-08-18T00:01:36.177Z,26.93
2022-08-18T00:02:36.352Z,26.90
2022-08-18T00:03:55.640Z,26.92
2022-08-18T00:04:48.933Z,26.92
2022-08-18T00:05:38.459Z,26.89
2022-08-18T00:06:36.976Z,26.89
2022-08-18T00:07:37.169Z,26.89
2022-08-18T00:08:38.610Z,26.88
2022-08-18T00:09:37.517Z,26.85
2022-08-18T00:10:37.747Z,26.84
2022-08-18T00:11:41.157Z,26.84
2022-08-18T00:12:38.037Z,26.84
2022-08-18T00:13:38.321Z,26.83
2022-08-18T00:14:38.357Z,26.81
2022-08-18T00:15:41.668Z,26.83
2022-08-18T00:16:39.767Z,26.81
2022-08-18T00:17:38.870Z,26.80
2022-08-18T00:18:39.051Z,26.81
2022-08-18T00:19:46.286Z,26.80
2022-08-18T00:20:40.416Z,26.75
2022-08-18T00:21:39.581Z,26.78
2022-08-18T00:22:39.800Z,26.75
2022-08-18T00:23:39.981Z,26.75
2022-08-18T00:24:40.098Z,26.73
2022-08-18T00:25:41.288Z,26.71
2022-08-18T00:26:40.515Z,26.71
2022-08-18T00:27:40.657Z,26.68
2022-08-18T00:28:40.828Z,26.68
2022-08-18T00:29:40.990Z,26.66
2022-08-18T00:30:41.149Z,26.65
2022-08-18T00:31:41.309Z,26.63
2022-08-18T00:32:41.484Z,26.65
2022-08-18T00:33:41.658Z,26.63
2022-08-18T00:34:41.895Z,26.59
2022-08-18T00:35:42.010Z,26.59
2022-08-18T00:36:42.252Z,26.58
2022-08-18T00:37:42.352Z,26.55
2022-08-18T00:38:42.500Z,26.53
2022-08-18T00:39:47.901Z,26.51
2022-08-18T00:40:43.864Z,26.51
2022-08-18T00:41:43.001Z,26.51
2022-08-18T00:42:43.158Z,26.51
2022-08-18T00:43:43.419Z,26.47
2022-08-18T00:44:43.539Z,26.45
2022-08-18T00:45:43.701Z,26.43
2022-08-18T00:46:43.943Z,26.40
2022-08-18T00:47:44.052Z,26.38
2022-08-18T00:48:48.906Z,26.37
2022-08-18T00:49:45.463Z,26.37
2022-08-18T00:50:44.562Z,26.36
2022-08-18T00:51:44.721Z,26.33
2022-08-18T00:52:44.972Z,26.33
2022-08-18T00:53:45.077Z,26.29
2022-08-18T00:54:45.222Z,26.28
2022-08-18T00:55:53.729Z,26.26
2022-08-18T00:56:46.584Z,26.23
2022-08-18T00:57:45.723Z,26.22
2022-08-18T00:58:45.932Z,26.22
2022-08-18T00:59:46.103Z,26.21
2022-08-18T01:00:46.257Z,26.21
2022-08-18T01:01:46.385Z,26.18
2022-08-18T01:02:46.602Z,26.18
2022-08-18T01:03:46.733Z,26.15
2022-08-18T01:04:46.894Z,26.15
2022-08-18T01:05:47.143Z,26.10
2022-08-18T01:06:47.243Z,26.10
2022-08-18T01:07:47.491Z,26.07
2022-08-18T01:08:47.711Z,26.07
2022-08-18T01:09:47.782Z,26.07
2022-08-18T01:10:47.934Z,26.06
2022-08-18T01:11:48.104Z,26.06
2022-08-18T01:12:48.279Z,26.05
2022-08-18T01:13:48.458Z,26.03
2022-08-18T01:14:48.654Z,26.02
2022-08-18T01:15:48.806Z,26.03
2022-08-18T01:16:53.212Z,26.02
2022-08-18T01:17:50.326Z,26.00
2022-08-18T01:18:49.381Z,26.00
2022-08-18T01:19:49.463Z,25.99
2022-08-18T01:20:49.617Z,25.99
2022-08-18T01:21:49.887Z,25.99
2022-08-18T01:22:49.966Z,26.00
2022-08-18T01:23:50.167Z,25.99
2022-08-18T01:24:50.379Z,25.96
2022-08-18T01:25:50.485Z,25.95
2022-08-18T01:26:50.647Z,25.95
2022-08-18T01:27:51.044Z,25.93
2022-08-18T01:28:51.001Z,25.93
2022-08-18T01:29:51.154Z,25.93
2022-08-18T01:30:51.406Z,25.95
2022-08-18T01:31:54.503Z,25.96
2022-08-18T01:32:51.647Z,25.96
2022-08-18T01:33:51.836Z,25.96
2022-08-18T01:34:52.037Z,26.00
2022-08-18T01:35:52.166Z,26.00
2022-08-18T01:36:52.319Z,26.02
2022-08-18T01:37:52.768Z,26.00
2022-08-18T01:38:52.677Z,26.02
2022-08-18T01:41:22.378Z,26.05
2022-08-18T01:41:22.836Z,26.03
2022-08-18T01:41:54.316Z,26.06
2022-08-18T01:42:53.348Z,26.07
2022-08-18T01:43:53.528Z,26.09
2022-08-18T01:44:53.769Z,26.13
2022-08-18T01:45:53.885Z,26.15
2022-08-18T01:46:54.038Z,26.10
2022-08-18T01:47:54.291Z,26.15
2022-08-18T01:48:54.372Z,26.15
2022-08-18T01:49:54.537Z,26.15
2022-08-18T01:50:54.688Z,26.13
2022-08-18T01:51:54.903Z,26.13
2022-08-18T01:52:55.019Z,26.10
2022-08-18T01:53:55.198Z,26.10
2022-08-18T01:54:55.420Z,26.13
2022-08-18T01:55:55.555Z,26.13
2022-08-18T01:56:55.709Z,26.13
2022-08-18T01:57:55.952Z,26.10
2022-08-18T01:58:56.050Z,26.13
2022-08-18T01:59:56.229Z,26.09
2022-08-18T02:00:56.463Z,26.09
2022-08-18T02:01:56.619Z,26.06
2022-08-18T02:03:02.048Z,26.03
2022-08-18T02:04:23.306Z,26.03
2022-08-18T02:04:58.114Z,26.02
2022-08-18T02:05:57.281Z,26.00
2022-08-18T02:06:57.441Z,26.00
2022-08-18T02:07:57.693Z,25.99
2022-08-18T02:08:57.780Z,25.95
2022-08-18T02:09:57.952Z,25.93
2022-08-18T02:10:58.192Z,25.93
2022-08-18T02:11:58.315Z,25.91
2022-08-18T02:12:58.470Z,25.93
2022-08-18T02:13:58.763Z,25.90
2022-08-18T02:14:58.860Z,25.88
2022-08-18T02:15:59.002Z,25.88
2022-08-18T02:17:02.176Z,25.87
2022-08-18T02:17:59.407Z,25.87
2022-08-18T02:18:59.548Z,25.88
2022-08-18T02:19:59.712Z,25.85
2022-08-18T02:20:59.944Z,25.85
2022-08-18T02:22:00.087Z,25.83
2022-08-18T02:23:00.232Z,25.81
2022-08-18T02:24:00.556Z,25.80
2022-08-18T02:25:00.597Z,25.77
2022-08-18T02:26:00.757Z,25.77
2022-08-18T02:27:01.005Z,25.73
2022-08-18T02:28:01.091Z,25.69
2022-08-18T02:29:01.263Z,25.70
2022-08-18T02:30:01.519Z,25.68
2022-08-18T02:31:01.578Z,25.66
2022-08-18T02:32:01.863Z,25.63
2022-08-18T02:33:01.940Z,25.62
2022-08-18T02:34:02.114Z,25.59
2022-08-18T02:35:02.338Z,25.59
2022-08-18T02:36:02.498Z,25.58
2022-08-18T02:37:02.635Z,25.55
2022-08-18T02:38:02.814Z,25.55
2022-08-18T02:39:03.040Z,25.54
2022-08-18T02:40:03.175Z,25.53
2022-08-18T02:41:03.325Z,25.51
2022-08-18T02:42:03.565Z,25.50
2022-08-18T02:43:03.667Z,25.47
2022-08-18T02:44:03.846Z,25.48
2022-08-18T02:45:04.003Z,25.46
2022-08-18T02:46:04.204Z,25.44
2022-08-18T02:47:04.363Z,25.43
2022-08-18T02:48:04.627Z,25.43
2022-08-18T02:49:04.747Z,25.41
2022-08-18T02:50:04.920Z,25.38
2022-08-18T02:51:05.126Z,25.38
2022-08-18T02:52:05.248Z,25.35
2022-08-18T02:53:05.410Z,25.36
2022-08-18T02:54:05.606Z,25.35
2022-08-18T02:55:05.819Z,25.33
2022-08-18T02:56:05.923Z,25.32
2022-08-18T02:57:06.079Z,25.33
2022-08-18T02:58:06.308Z,25.31
2022-08-18T02:59:06.478Z,25.32
2022-08-18T03:00:06.596Z,25.29
2022-08-18T03:01:06.823Z,25.31
2022-08-18T03:02:06.995Z,25.32
2022-08-18T03:03:07.106Z,25.29
2022-08-18T03:04:07.285Z,25.29
2022-08-18T03:05:07.514Z,25.31
2022-08-18T03:06:08.607Z,25.29
2022-08-18T03:07:07.807Z,25.31
2022-08-18T03:08:08.049Z,25.31
2022-08-18T03:09:08.137Z,25.29
2022-08-18T03:10:32.847Z,25.29
2022-08-18T03:11:09.540Z,25.28
2022-08-18T03:12:08.653Z,25.28
2022-08-18T03:13:08.809Z,25.28
2022-08-18T03:14:11.365Z,25.29
2022-08-18T03:15:09.191Z,25.28
2022-08-18T03:16:09.338Z,25.29
2022-08-18T03:17:09.510Z,25.29
2022-08-18T03:18:09.724Z,25.26
2022-08-18T03:19:09.849Z,25.28
2022-08-18T03:20:10.019Z,25.26
2022-08-18T03:21:10.245Z,25.26
2022-08-18T03:22:27.461Z,25.26
2022-08-18T03:23:11.530Z,25.26
2022-08-18T03:24:10.856Z,25.23
2022-08-18T03:25:10.901Z,25.23
2022-08-18T03:26:11.068Z,25.21
2022-08-18T03:27:11.320Z,25.17
2022-08-18T03:28:11.393Z,25.16
2022-08-18T03:29:11.569Z,25.16
2022-08-18T03:30:11.820Z,25.16
2022-08-18T03:31:11.928Z,25.13
2022-08-18T03:32:12.090Z,25.13
2022-08-18T03:33:12.303Z,25.13
2022-08-18T03:34:12.515Z,25.11
2022-08-18T03:35:12.611Z,25.11
2022-08-18T03:36:12.792Z,25.11
2022-08-18T03:37:13.036Z,25.11
2022-08-18T03:38:13.153Z,25.10
2022-08-18T03:39:13.311Z,25.10
2022-08-18T03:40:13.615Z,25.11
2022-08-18T03:41:13.630Z,25.11
2022-08-18T03:42:13.812Z,25.10
2022-08-18T03:43:23.700Z,25.10
2022-08-18T03:44:15.191Z,25.08
2022-08-18T03:45:17.756Z,25.06
2022-08-18T03:46:14.604Z,25.06
2022-08-18T03:47:14.706Z,25.04
2022-08-18T03:48:14.882Z,25.06
2022-08-18T03:49:15.183Z,25.06
2022-08-18T03:50:15.271Z,25.04
2022-08-18T03:51:15.424Z,25.06
2022-08-18T03:52:15.623Z,25.06
2022-08-18T03:53:15.806Z,25.04
2022-08-18T03:54:15.922Z,25.03
2022-08-18T03:55:16.102Z,25.03
2022-08-18T03:56:17.649Z,25.04
2022-08-18T03:57:16.438Z,25.06
2022-08-18T03:58:16.622Z,25.01
2022-08-18T03:59:16.925Z,25.03
2022-08-18T04:00:16.979Z,25.03
2022-08-18T04:01:26.326Z,25.03
2022-08-18T04:02:18.426Z,25.03
2022-08-18T04:03:17.535Z,25.03
2022-08-18T04:04:17.727Z,25.04
2022-08-18T04:05:17.971Z,25.06
2022-08-18T04:06:18.083Z,25.07
2022-08-18T04:07:19.251Z,25.07
2022-08-18T04:08:18.427Z,25.08
2022-08-18T04:09:18.649Z,25.07
2022-08-18T04:10:19.407Z,25.08
2022-08-18T04:11:18.932Z,25.08
2022-08-18T04:12:19.163Z,25.11
2022-08-18T04:13:19.256Z,25.10
2022-08-18T04:14:19.424Z,25.13
2022-08-18T04:15:19.687Z,25.16
2022-08-18T04:16:19.776Z,25.16
2022-08-18T04:17:19.965Z,25.18
2022-08-18T04:18:20.229Z,25.21
2022-08-18T04:19:26.347Z,25.18
2022-08-18T04:20:21.474Z,25.22
2022-08-18T04:21:20.747Z,25.25
2022-08-18T04:22:20.864Z,25.28
2022-08-18T04:23:21.036Z,25.28
2022-08-18T04:24:21.236Z,25.28
2022-08-18T04:25:21.365Z,25.32
2022-08-18T04:26:21.598Z,25.32
2022-08-18T04:27:21.739Z,25.33
2022-08-18T04:28:21.874Z,25.35
2022-08-18T04:29:22.067Z,25.38
2022-08-18T04:30:22.240Z,25.41
2022-08-18T04:31:22.355Z,25.43
2022-08-18T04:32:22.517Z,25.41
2022-08-18T04:33:23.697Z,25.41
2022-08-18T04:34:22.891Z,25.41
2022-08-18T04:35:23.114Z,25.43
2022-08-18T04:36:23.207Z,25.46
2022-08-18T04:37:23.387Z,25.50
2022-08-18T04:38:23.651Z,25.53
2022-08-18T04:39:23.762Z,25.54
2022-08-18T04:40:25.345Z,25.58
2022-08-18T04:41:24.150Z,25.63
2022-08-18T04:42:24.238Z,25.65
2022-08-18T04:43:24.425Z,25.69
2022-08-18T04:44:24.730Z,25.73
2022-08-18T04:45:24.783Z,25.75
2022-08-18T04:46:24.964Z,25.78
2022-08-18T04:47:25.216Z,25.81
2022-08-18T04:48:25.340Z,25.84
2022-08-18T04:49:25.508Z,25.88
2022-08-18T04:50:25.688Z,25.93
2022-08-18T04:52:36.715Z,25.96
2022-08-18T04:52:39.966Z,25.98
2022-08-18T04:53:27.151Z,26.03
2022-08-18T04:54:26.448Z,26.06
2022-08-18T04:55:26.500Z,26.13
2022-08-18T04:56:26.679Z,26.15
2022-08-18T04:57:26.942Z,26.18
2022-08-18T04:58:27.032Z,26.21
2022-08-18T04:59:27.231Z,26.22
2022-08-18T05:00:27.461Z,26.25
2022-08-18T05:01:27.600Z,26.26
2022-08-18T05:02:27.722Z,26.31
2022-08-18T05:03:27.986Z,26.34
2022-08-18T05:04:28.131Z,26.36
2022-08-18T05:05:28.259Z,26.37
2022-08-18T05:06:28.451Z,26.40
2022-08-18T05:07:28.660Z,26.41
2022-08-18T05:08:28.772Z,26.44
2022-08-18T05:09:28.980Z,26.47
2022-08-18T05:10:29.181Z,26.51
2022-08-18T05:11:29.283Z,26.53
2022-08-18T05:12:29.459Z,26.59
2022-08-18T05:13:29.701Z,26.65
2022-08-18T05:14:29.802Z,26.71
2022-08-18T05:15:42.120Z,26.75
2022-08-18T05:16:31.199Z,26.80
2022-08-18T05:17:31.243Z,26.89
2022-08-18T05:18:30.491Z,26.92
2022-08-18T05:19:30.801Z,26.96
2022-08-18T05:20:30.879Z,26.99
2022-08-18T05:21:31.043Z,27.05
2022-08-18T05:22:31.878Z,27.10
2022-08-18T05:23:31.383Z,27.14
2022-08-18T05:24:37.270Z,27.20
2022-08-18T05:25:32.733Z,27.26
2022-08-18T05:26:31.893Z,27.29
2022-08-18T05:27:32.106Z,27.33
2022-08-18T05:28:32.301Z,27.35
2022-08-18T05:29:32.434Z,27.40
2022-08-18T05:30:32.603Z,27.44
2022-08-18T05:31:32.786Z,27.54
2022-08-18T05:32:47.574Z,27.63
2022-08-18T05:33:34.096Z,27.67
2022-08-18T05:34:33.364Z,27.70
2022-08-18T05:35:33.422Z,27.73
2022-08-18T05:36:33.594Z,27.75
2022-08-18T05:37:35.764Z,27.82
2022-08-18T05:38:33.955Z,27.86
2022-08-18T05:39:34.332Z,27.92
2022-08-18T05:40:34.327Z,27.98
2022-08-18T05:41:34.507Z,28.01
2022-08-18T05:42:34.732Z,28.04
2022-08-18T05:43:34.882Z,28.08
2022-08-18T05:44:35.048Z,28.10
2022-08-18T05:45:35.267Z,28.17
2022-08-18T05:46:35.397Z,28.23
2022-08-18T05:47:35.565Z,28.26
2022-08-18T05:48:39.774Z,28.33
2022-08-18T05:49:36.974Z,28.38
2022-08-18T05:50:36.090Z,28.45
2022-08-18T05:51:36.277Z,28.52
2022-08-18T05:52:36.486Z,28.57
2022-08-18T05:53:36.656Z,28.66
2022-08-18T05:54:36.785Z,28.72
2022-08-18T05:55:36.967Z,28.78
2022-08-18T05:56:37.146Z,28.84
2022-08-18T05:57:37.392Z,28.86
2022-08-18T05:58:37.490Z,28.89
2022-08-18T05:59:37.707Z,28.93
2022-08-18T06:00:37.913Z,28.96
2022-08-18T06:01:38.011Z,28.98
2022-08-18T06:02:38.223Z,29.05
2022-08-18T06:03:46.324Z,29.07
2022-08-18T06:04:39.519Z,29.10
2022-08-18T06:05:38.709Z,29.16
2022-08-18T06:06:38.840Z,29.17
2022-08-18T06:07:39.027Z,29.19
2022-08-18T06:08:39.230Z,29.22
2022-08-18T06:09:39.470Z,29.22
2022-08-18T06:10:39.543Z,29.23
2022-08-18T06:11:39.735Z,29.29
2022-08-18T06:12:43.416Z,29.29
2022-08-18T06:13:41.140Z,29.29
2022-08-18T06:14:40.302Z,29.31
2022-08-18T06:15:40.495Z,29.31
2022-08-18T06:16:40.630Z,29.27
2022-08-18T06:17:40.763Z,29.20
2022-08-18T06:18:40.932Z,29.20
2022-08-18T06:19:41.190Z,29.20
2022-08-18T06:20:41.265Z,29.20
2022-08-18T06:21:41.456Z,29.16
2022-08-18T06:22:52.242Z,29.14
2022-08-18T06:23:42.839Z,29.14
2022-08-18T06:24:42.003Z,29.17
2022-08-18T06:25:42.264Z,29.16
2022-08-18T06:26:42.334Z,29.17
2022-08-18T06:27:42.513Z,29.19
2022-08-18T06:28:42.783Z,29.22
2022-08-18T06:29:42.900Z,29.20
2022-08-18T06:30:43.033Z,29.23
2022-08-18T06:31:43.272Z,29.23
2022-08-18T06:32:43.427Z,29.29
2022-08-18T06:33:43.573Z,29.29
2022-08-18T06:34:43.746Z,29.35
2022-08-18T06:35:43.953Z,29.35
2022-08-18T06:36:44.071Z,29.35
2022-08-18T06:37:44.256Z,29.39
2022-08-18T06:38:45.756Z,29.39
2022-08-18T06:39:44.717Z,29.42
2022-08-18T06:40:44.773Z,29.49
2022-08-18T06:41:45.037Z,29.54
2022-08-18T06:42:45.126Z,29.54
2022-08-18T06:43:45.316Z,29.60
2022-08-18T06:44:45.601Z,29.65
2022-08-18T06:45:45.724Z,29.68
2022-08-18T06:46:45.849Z,29.69
2022-08-18T06:47:46.150Z,29.71
2022-08-18T06:48:46.245Z,29.73
2022-08-18T06:49:46.406Z,29.76
2022-08-18T06:50:46.567Z,29.78
2022-08-18T06:51:46.734Z,29.81
2022-08-18T06:52:46.877Z,29.81
2022-08-18T06:53:47.053Z,29.87
2022-08-18T06:54:47.780Z,29.87
2022-08-18T06:55:47.378Z,29.88
2022-08-18T06:56:47.538Z,29.90
2022-08-18T06:57:47.811Z,29.94
2022-08-18T06:58:52.610Z,29.97
2022-08-18T06:59:49.047Z,30.02
2022-08-18T07:00:49.185Z,30.06
2022-08-18T07:01:48.400Z,30.10
2022-08-18T07:02:48.560Z,30.15
2022-08-18T07:03:48.817Z,30.18
2022-08-18T07:04:48.893Z,30.21
2022-08-18T07:05:49.069Z,30.19
2022-08-18T07:06:49.303Z,30.23
2022-08-18T07:07:49.469Z,30.27
2022-08-18T07:08:49.610Z,30.31
2022-08-18T07:09:49.789Z,30.32
2022-08-18T07:10:49.989Z,30.32
2022-08-18T07:11:50.152Z,30.35
2022-08-18T07:12:50.333Z,30.39
2022-08-18T07:14:03.605Z,30.44
2022-08-18T07:14:51.680Z,30.50
2022-08-18T07:15:50.871Z,30.48
2022-08-18T07:16:59.528Z,30.47
2022-08-18T07:17:52.272Z,30.53
2022-08-18T07:18:51.399Z,30.57
2022-08-18T07:19:51.620Z,30.61
2022-08-18T07:20:51.746Z,30.66
2022-08-18T07:21:51.923Z,30.69
2022-08-18T07:22:52.173Z,30.73
2022-08-18T07:24:14.100Z,30.70
2022-08-18T07:24:53.452Z,30.73
2022-08-18T07:25:52.662Z,30.77
2022-08-18T07:26:52.850Z,30.83
2022-08-18T07:27:53.296Z,30.84
2022-08-18T07:28:53.164Z,30.88
2022-08-18T07:29:53.380Z,30.90
2022-08-18T07:31:15.501Z,30.96
2022-08-18T07:31:54.679Z,31.05
2022-08-18T07:32:53.886Z,31.06
2022-08-18T07:33:54.123Z,31.10
2022-08-18T07:34:54.185Z,31.15
2022-08-18T07:35:54.368Z,31.22
2022-08-18T07:36:54.568Z,31.31
2022-08-18T07:37:54.708Z,31.37
2022-08-18T07:38:54.885Z,31.43
2022-08-18T07:39:55.112Z,31.52
2022-08-18T07:40:55.195Z,31.55
2022-08-18T07:41:55.369Z,31.59
2022-08-18T07:43:01.983Z,31.66
2022-08-18T07:43:56.716Z,31.76
2022-08-18T07:44:55.886Z,31.78
2022-08-18T07:45:56.131Z,31.87
2022-08-18T07:46:56.237Z,31.97
2022-08-18T07:47:56.408Z,32.07
2022-08-18T07:48:56.663Z,32.12
2022-08-18T07:50:18.275Z,32.21
2022-08-18T07:51:01.461Z,32.31
2022-08-18T07:51:58.167Z,32.38
2022-08-18T07:52:57.287Z,32.43
2022-08-18T07:53:57.506Z,32.49
2022-08-18T07:54:57.609Z,32.53
2022-08-18T07:55:57.813Z,32.59
2022-08-18T07:56:57.918Z,32.59
2022-08-18T07:57:58.364Z,32.60
2022-08-18T07:58:58.360Z,32.59
2022-08-18T07:59:58.467Z,32.58
2022-08-18T08:00:59.969Z,32.53
2022-08-18T08:01:58.906Z,32.52
2022-08-18T08:02:58.999Z,32.53
2022-08-18T08:03:59.182Z,32.53
2022-08-18T08:04:59.407Z,32.55
2022-08-18T08:05:59.521Z,32.58
2022-08-18T08:07:22.947Z,32.63
2022-08-18T08:08:00.927Z,32.64
2022-08-18T08:09:00.060Z,32.68
2022-08-18T08:10:00.215Z,32.74
2022-08-18T08:11:00.431Z,32.78
2022-08-18T08:12:00.543Z,32.86
2022-08-18T08:13:08.730Z,32.92
2022-08-18T08:14:01.904Z,32.97
2022-08-18T08:15:01.080Z,33.04
2022-08-18T08:16:01.236Z,33.08
2022-08-18T08:17:01.412Z,33.12
2022-08-18T08:18:01.613Z,33.14
2022-08-18T08:19:01.753Z,33.19
2022-08-18T08:20:02.467Z,33.19
2022-08-18T08:21:02.174Z,33.22
2022-08-18T08:22:02.293Z,33.22
2022-08-18T08:23:02.454Z,33.23
2022-08-18T08:24:03.508Z,33.24
2022-08-18T08:25:02.787Z,33.22
2022-08-18T08:26:02.969Z,33.24
2022-08-18T08:27:03.177Z,33.31
2022-08-18T08:28:03.306Z,33.36
2022-08-18T08:29:03.485Z,33.45
2022-08-18T08:30:03.715Z,33.53
2022-08-18T08:31:25.549Z,33.53
2022-08-18T08:32:04.997Z,33.43
2022-08-18T08:33:04.178Z,33.46
2022-08-18T08:34:06.143Z,33.53
2022-08-18T08:35:04.507Z,33.62
2022-08-18T08:36:04.665Z,33.69
2022-08-18T08:37:04.888Z,33.77
2022-08-18T08:38:36.451Z,33.83
2022-08-18T08:39:06.177Z,33.87
2022-08-18T08:40:05.423Z,33.92
2022-08-18T08:41:05.554Z,33.95
2022-08-18T08:42:32.039Z,33.96
2022-08-18T08:43:06.838Z,33.96
2022-08-18T08:44:06.101Z,33.96
2022-08-18T08:45:06.192Z,34.03
2022-08-18T08:46:06.365Z,34.17
2022-08-18T08:47:06.618Z,34.40
2022-08-18T08:48:09.199Z,34.74
2022-08-18T08:49:06.926Z,35.24
2022-08-18T08:50:07.158Z,35.82
2022-08-18T08:51:07.260Z,36.58
2022-08-18T08:52:07.412Z,37.47
2022-08-18T08:53:07.678Z,38.30
2022-08-18T08:54:07.799Z,39.11
2022-08-18T08:55:07.972Z,39.78
2022-08-18T08:56:08.207Z,40.50
2022-08-18T08:57:08.936Z,41.04
2022-08-18T08:58:08.494Z,41.43
2022-08-18T08:59:08.788Z,41.91
2022-08-18T09:00:08.872Z,42.41
2022-08-18T09:01:09.002Z,42.79
2022-08-18T09:02:09.187Z,43.04
2022-08-18T09:03:09.383Z,43.45
2022-08-18T09:04:09.533Z,43.81
2022-08-18T09:05:09.963Z,44.20
2022-08-18T09:06:09.978Z,44.61
2022-08-18T09:07:10.062Z,44.74
2022-08-18T09:08:10.237Z,44.87
2022-08-18T09:09:10.549Z,44.86
2022-08-18T09:10:10.595Z,44.48
2022-08-18T09:11:10.800Z,44.20
2022-08-18T09:12:11.043Z,44.15
2022-08-18T09:13:11.136Z,44.15
2022-08-18T09:14:11.332Z,44.18
2022-08-18T09:15:11.630Z,44.47
2022-08-18T09:16:13.564Z,44.61
2022-08-18T09:17:11.857Z,44.81
2022-08-18T09:18:12.088Z,44.72
2022-08-18T09:19:12.277Z,44.67
2022-08-18T09:20:12.411Z,44.83
2022-08-18T09:21:12.617Z,45.20
2022-08-18T09:22:12.813Z,45.56
2022-08-18T09:23:12.938Z,45.96
2022-08-18T09:24:13.130Z,46.29
2022-08-18T09:25:13.351Z,46.58
2022-08-18T09:26:13.479Z,46.77
2022-08-18T09:27:13.669Z,46.96
2022-08-18T09:28:13.927Z,47.18
2022-08-18T09:29:14.040Z,47.18
2022-08-18T09:30:14.189Z,46.95
2022-08-18T09:31:14.450Z,46.62
2022-08-18T09:32:15.531Z,46.10
2022-08-18T09:33:18.782Z,45.51
2022-08-18T09:34:14.966Z,45.13
2022-08-18T09:35:15.080Z,44.97
2022-08-18T09:36:15.305Z,44.88
2022-08-18T09:37:16.456Z,44.69
2022-08-18T09:38:15.596Z,44.44
2022-08-18T09:39:15.782Z,44.32
2022-08-18T09:40:16.064Z,44.22
2022-08-18T09:41:16.234Z,44.18
2022-08-18T09:42:16.279Z,43.96
2022-08-18T09:43:20.286Z,43.74
2022-08-18T09:44:21.533Z,43.62
2022-08-18T09:45:17.824Z,43.60
2022-08-18T09:46:17.014Z,43.68
2022-08-18T09:47:17.249Z,43.94
2022-08-18T09:48:20.782Z,44.34
2022-08-18T09:49:18.575Z,44.55
2022-08-18T09:50:26.773Z,44.61
2022-08-18T09:51:19.179Z,44.56
2022-08-18T09:52:18.097Z,44.51
2022-08-18T09:53:18.379Z,44.48
2022-08-18T09:55:19.656Z,43.68
2022-08-18T09:56:19.744Z,43.28
2022-08-18T09:57:20.860Z,43.43
2022-08-18T09:58:19.197Z,43.83
2022-08-18T09:59:19.408Z,44.33
2022-08-18T10:00:19.594Z,44.54
2022-08-18T10:01:19.818Z,44.44
2022-08-18T10:02:22.808Z,44.15
2022-08-18T10:04:21.614Z,43.79
2022-08-18T10:05:21.444Z,43.99
2022-08-18T10:06:20.808Z,44.36
2022-08-18T10:07:21.790Z,44.55
2022-08-18T10:09:36.096Z,44.76
2022-08-18T10:11:02.095Z,44.71
2022-08-18T10:11:22.558Z,44.61
2022-08-18T10:12:21.734Z,44.52
2022-08-18T10:13:25.085Z,44.29
2022-08-18T10:14:22.063Z,44.15
2022-08-18T10:15:33.526Z,44.03
2022-08-18T10:16:23.459Z,43.89
2022-08-18T10:17:24.431Z,43.57
2022-08-18T10:18:22.819Z,43.19
2022-08-18T10:19:33.844Z,42.95
2022-08-18T10:20:26.906Z,42.74
2022-08-18T10:21:24.540Z,42.53
2022-08-18T10:22:35.407Z,42.33
2022-08-18T10:23:24.674Z,42.13
2022-08-18T10:24:36.251Z,41.87
2022-08-18T10:25:25.004Z,41.57
2022-08-18T10:26:24.135Z,41.28
2022-08-18T10:27:24.335Z,40.99
2022-08-18T10:28:24.517Z,40.69
2022-08-18T10:29:24.696Z,40.47
2022-08-18T10:30:24.848Z,40.16
2022-08-18T10:31:27.425Z,39.86
2022-08-18T10:32:25.196Z,39.55
2022-08-18T10:33:25.377Z,39.40
2022-08-18T10:34:25.571Z,39.26
2022-08-18T10:35:32.563Z,39.06
2022-08-18T10:36:26.901Z,38.76
2022-08-18T10:37:26.328Z,38.61
2022-08-18T10:38:26.302Z,38.39
2022-08-18T10:39:26.438Z,38.15
2022-08-18T10:40:28.150Z,37.92
2022-08-18T10:41:26.767Z,37.68
2022-08-18T10:42:31.002Z,37.55
2022-08-18T10:43:45.298Z,37.44
2022-08-18T10:44:29.787Z,37.39
2022-08-18T10:45:27.450Z,37.44
2022-08-18T10:46:31.852Z,37.40
2022-08-18T10:47:33.215Z,37.40
2022-08-18T10:48:28.991Z,37.37
2022-08-18T10:49:28.190Z,37.33
2022-08-18T10:50:28.362Z,37.30
2022-08-18T10:51:28.521Z,37.18
2022-08-18T10:52:28.728Z,36.99
2022-08-18T10:53:38.844Z,36.88
2022-08-18T10:54:30.023Z,36.74
2022-08-18T10:55:48.751Z,36.62
2022-08-18T10:56:30.386Z,36.55
2022-08-18T10:57:29.555Z,36.47
2022-08-18T10:58:29.808Z,36.42
2022-08-18T10:59:29.916Z,36.42
2022-08-18T11:00:30.086Z,36.43
2022-08-18T11:01:31.058Z,36.45
2022-08-18T11:02:30.426Z,36.55
2022-08-18T11:03:52.013Z,36.58
2022-08-18T11:05:32.968Z,36.70
2022-08-18T11:06:31.147Z,36.74
2022-08-18T11:07:34.496Z,36.84
2022-08-18T11:08:31.785Z,36.86
2022-08-18T11:09:31.677Z,36.91
2022-08-18T11:10:32.173Z,36.93
2022-08-18T11:11:34.469Z,37.01
2022-08-18T11:12:33.202Z,37.06
2022-08-18T11:13:32.364Z,37.11
2022-08-18T11:14:34.058Z,37.18
2022-08-18T11:15:36.200Z,37.23
2022-08-18T11:16:33.973Z,37.26
2022-08-18T11:17:33.097Z,37.25
2022-08-18T11:18:36.244Z,37.18
2022-08-18T11:19:33.483Z,37.13
2022-08-18T11:20:33.630Z,37.10
2022-08-18T11:21:33.819Z,37.06
2022-08-18T11:22:35.632Z,36.99
2022-08-18T11:23:34.219Z,37.02
2022-08-18T11:24:34.318Z,37.02
2022-08-18T11:25:34.489Z,37.07
2022-08-18T11:26:34.783Z,37.07
2022-08-18T11:27:34.829Z,37.07
2022-08-18T11:28:38.989Z,37.10
2022-08-18T11:29:36.251Z,37.03
2022-08-18T11:30:35.836Z,37.02
2022-08-18T11:31:35.541Z,37.02
2022-08-18T11:32:35.701Z,37.03
2022-08-18T11:33:37.548Z,37.03
2022-08-18T11:34:36.037Z,36.98
2022-08-18T11:35:36.229Z,36.95
2022-08-18T11:36:36.363Z,36.93
2022-08-18T11:37:48.681Z,36.98
2022-08-18T11:38:37.732Z,37.03
2022-08-18T11:39:38.167Z,37.07
2022-08-18T11:41:09.671Z,37.06
2022-08-18T11:41:48.940Z,37.03
2022-08-18T11:42:38.492Z,37.01
2022-08-18T11:43:41.045Z,37.03
2022-08-18T11:44:37.754Z,37.02
2022-08-18T11:45:37.949Z,37.03
2022-08-18T11:46:38.104Z,37.03
2022-08-18T11:47:38.256Z,37.13
2022-08-18T11:48:51.580Z,37.17
2022-08-18T11:49:39.671Z,37.21
2022-08-18T11:50:38.775Z,37.23
2022-08-18T11:51:39.944Z,37.25
2022-08-18T11:52:39.160Z,37.25
2022-08-18T11:53:39.285Z,37.21
2022-08-18T11:54:39.457Z,37.23
2022-08-18T11:55:40.697Z,37.28
2022-08-18T11:56:40.805Z,37.28
2022-08-18T11:57:46.637Z,37.26
2022-08-18T11:58:41.258Z,37.30
2022-08-18T12:00:42.513Z,37.36
2022-08-18T12:01:42.134Z,37.44
2022-08-18T12:02:40.881Z,37.55
2022-08-18T12:03:41.454Z,37.67
2022-08-18T12:04:41.201Z,37.74
2022-08-18T12:05:45.968Z,37.84
2022-08-18T12:06:43.162Z,37.92
2022-08-18T12:07:41.848Z,37.93
2022-08-18T12:08:57.354Z,37.97
2022-08-18T12:10:43.276Z,38.04
2022-08-18T12:11:42.751Z,38.11
2022-08-18T12:12:42.590Z,38.09
2022-08-18T12:13:42.769Z,38.19
2022-08-18T12:14:42.985Z,38.26
2022-08-18T12:15:46.711Z,38.33
2022-08-18T12:16:46.464Z,38.42
2022-08-18T12:17:43.569Z,38.48
2022-08-18T12:18:44.652Z,38.52
2022-08-18T12:19:43.812Z,38.60
2022-08-18T12:20:44.081Z,38.69
2022-08-18T12:21:44.173Z,38.77
2022-08-18T12:22:44.404Z,38.83
2022-08-18T12:23:49.539Z,38.86
2022-08-18T12:24:45.722Z,38.96
2022-08-18T12:25:44.986Z,39.04
2022-08-18T12:26:47.524Z,39.12
2022-08-18T12:27:45.267Z,39.18
2022-08-18T12:28:45.426Z,39.17
2022-08-18T12:29:47.717Z,39.15
2022-08-18T12:30:45.771Z,39.12
2022-08-18T12:31:48.189Z,39.07
2022-08-18T12:32:49.466Z,39.04
2022-08-18T12:33:48.086Z,39.02
2022-08-18T12:34:47.456Z,39.00
2022-08-18T12:35:46.724Z,39.03
2022-08-18T12:36:46.859Z,39.03
2022-08-18T12:38:03.632Z,38.97
2022-08-18T12:39:48.440Z,38.99
2022-08-18T12:40:47.497Z,38.99
2022-08-18T12:41:47.689Z,38.99
2022-08-18T12:42:48.003Z,38.96
2022-08-18T12:43:59.116Z,39.02
2022-08-18T12:44:49.187Z,39.02
2022-08-18T12:45:48.455Z,39.02
2022-08-18T12:46:48.585Z,39.03
2022-08-18T12:47:48.745Z,39.09
2022-08-18T12:48:48.984Z,39.12
2022-08-18T12:49:49.068Z,39.17
2022-08-18T12:50:54.538Z,39.25
2022-08-18T12:51:50.718Z,39.31
2022-08-18T12:52:49.679Z,39.33
2022-08-18T12:53:58.404Z,39.31
2022-08-18T12:54:55.502Z,39.36
2022-08-18T12:55:51.117Z,39.30
2022-08-18T12:56:50.251Z,39.21
2022-08-18T12:57:53.419Z,39.09
2022-08-18T12:58:50.658Z,38.92
2022-08-18T12:59:50.742Z,38.86
2022-08-18T13:00:51.416Z,38.79
2022-08-18T13:01:51.194Z,38.69